createdAt,value
2023-05-04T00:01:18.116Z,14.80
2023-05-04T00:05:17.045Z,13.40
2023-05-04T00:09:33.098Z,13.30
2023-05-04T00:13:31.061Z,12.30
2023-05-04T00:17:29.091Z,14.90
2023-05-04T00:21:27.056Z,14.80
2023-05-04T00:25:25.071Z,16.30
2023-05-04T00:29:23.011Z,16.60
2023-05-04T00:33:21.081Z,16.10
2023-05-04T00:37:19.032Z,16.90
2023-05-04T00:41:17.096Z,20.40
2023-05-04T00:45:15.047Z,16.90
2023-05-04T00:49:13.020Z,25.40
2023-05-04T00:53:14.019Z,18.10
2023-05-04T00:57:11.994Z,18.90
2023-05-04T01:01:10.039Z,19.40
2023-05-04T01:05:08.020Z,14.90
2023-05-04T01:09:23.982Z,17.70
2023-05-04T01:13:26.018Z,17.80
2023-05-04T01:17:26.020Z,15.50
2023-05-04T01:21:23.992Z,16.70
2023-05-04T01:25:22.961Z,15.50
2023-05-04T01:29:31.982Z,16.60
2023-05-04T01:34:01.961Z,16.20
2023-05-04T01:37:59.972Z,15.30
2023-05-04T01:41:57.966Z,14.20
2023-05-04T01:45:56.051Z,13.10
2023-05-04T01:49:53.920Z,12.10
2023-05-04T01:53:51.950Z,13.20
2023-05-04T01:57:49.912Z,12.30
2023-05-04T02:01:48.016Z,12.70
2023-05-04T02:05:45.950Z,18.50
2023-05-04T02:09:43.917Z,16.40
2023-05-04T02:13:41.943Z,17.40
2023-05-04T02:17:39.992Z,20.40
2023-05-04T02:21:37.897Z,20.40
2023-05-04T02:25:35.892Z,17.80
2023-05-04T02:29:33.887Z,17.10
2023-05-04T02:33:31.906Z,18.60
2023-05-04T02:37:29.910Z,16.60
2023-05-04T02:41:27.893Z,15.10
2023-05-04T02:45:25.901Z,17.50
2023-05-04T02:49:24.007Z,13.60
2023-05-04T02:53:21.845Z,14.00
2023-05-04T02:57:19.902Z,15.50
2023-05-04T03:01:17.851Z,15.20
2023-05-04T03:05:18.857Z,15.40
2023-05-04T03:09:16.868Z,15.00
2023-05-04T03:13:14.944Z,12.90
2023-05-04T03:17:12.789Z,14.90
2023-05-04T03:21:10.832Z,17.20
2023-05-04T03:25:08.827Z,15.20
2023-05-04T03:33:35.822Z,14.20
2023-05-04T03:37:26.807Z,16.60
2023-05-04T03:41:25.865Z,13.40
2023-05-04T03:45:23.814Z,12.50
2023-05-04T03:49:21.760Z,15.80
2023-05-04T03:53:19.855Z,14.50
2023-05-04T03:57:17.786Z,11.50
2023-05-04T04:01:16.803Z,14.90
2023-05-04T04:05:14.785Z,9.00
2023-05-04T04:09:13.789Z,7.50
2023-05-04T04:13:11.798Z,7.40
2023-05-04T04:17:09.831Z,7.10
2023-05-04T04:21:07.748Z,10.00
2023-05-04T04:25:05.748Z,11.40
2023-05-04T04:29:03.754Z,7.60
2023-05-04T04:33:03.854Z,9.10
2023-05-04T04:37:01.750Z,12.10
2023-05-04T04:40:59.795Z,9.50
2023-05-04T04:44:57.735Z,10.80
2023-05-04T04:48:55.739Z,10.20
2023-05-04T04:52:53.715Z,10.40
2023-05-04T04:56:53.717Z,8.00
2023-05-04T05:00:51.784Z,9.40
2023-05-04T05:04:49.796Z,6.40
2023-05-04T05:08:47.716Z,8.50
2023-05-04T05:12:45.825Z,9.10
2023-05-04T05:16:43.829Z,8.20
2023-05-04T05:20:41.810Z,8.40
2023-05-04T05:24:39.687Z,7.60
2023-05-04T05:28:37.692Z,7.90
2023-05-04T05:32:35.765Z,10.00
2023-05-04T05:36:33.720Z,7.90
2023-05-04T05:40:31.651Z,7.10
2023-05-04T05:44:29.687Z,9.10
2023-05-04T05:48:27.675Z,8.40
2023-05-04T05:52:25.733Z,7.10
2023-05-04T05:56:23.756Z,7.30
2023-05-04T06:00:01.191Z,5.30
2023-05-04T06:03:36.062Z,7.70
2023-05-04T06:07:00.127Z,7.80
2023-05-04T06:10:24.147Z,10.20
2023-05-04T06:13:47.973Z,10.70
2023-05-04T06:17:11.773Z,9.80
2023-05-04T06:20:36.234Z,8.30
2023-05-04T06:23:59.976Z,5.20
2023-05-04T06:27:24.738Z,7.10
2023-05-04T06:30:48.837Z,8.10
2023-05-04T06:34:12.846Z,10.20
2023-05-04T06:37:36.691Z,9.10
2023-05-04T06:41:00.853Z,7.00
2023-05-04T06:44:24.793Z,6.60
2023-05-04T06:47:48.783Z,7.90
2023-05-04T06:51:12.616Z,5.90
2023-05-04T06:54:36.526Z,4.50
2023-05-04T06:58:00.342Z,4.60
2023-05-04T07:01:24.493Z,7.40
2023-05-04T07:04:48.520Z,7.30
2023-05-04T07:08:13.039Z,5.00
2023-05-04T07:11:36.938Z,3.30
2023-05-04T07:15:00.797Z,3.80
2023-05-04T07:18:24.689Z,4.40
2023-05-04T07:21:48.787Z,4.50
2023-05-04T07:25:12.578Z,8.20
2023-05-04T07:28:36.462Z,4.20
2023-05-04T07:32:00.303Z,4.30
2023-05-04T07:35:38.051Z,5.30
2023-05-04T07:39:01.927Z,3.60
2023-05-04T07:42:28.020Z,2.60
2023-05-04T07:45:54.496Z,4.00
2023-05-04T07:49:18.343Z,3.30
2023-05-04T07:52:42.752Z,3.10
2023-05-04T07:56:14.231Z,4.50
2023-05-04T07:59:38.063Z,2.60
2023-05-04T08:03:01.897Z,2.90
2023-05-04T08:06:26.152Z,2.00
2023-05-04T08:09:50.078Z,2.90
2023-05-04T08:13:14.008Z,4.00
2023-05-04T08:16:39.805Z,2.60
2023-05-04T08:23:28.650Z,2.60
2023-05-04T08:27:06.606Z,3.10
2023-05-04T08:30:32.588Z,4.20
2023-05-04T08:33:56.394Z,2.50
2023-05-04T08:37:20.333Z,2.90
2023-05-04T08:40:44.313Z,3.00
2023-05-04T08:44:10.448Z,3.00
2023-05-04T08:47:34.399Z,3.30
2023-05-04T08:50:59.394Z,6.50
2023-05-04T08:54:23.736Z,5.40
2023-05-04T08:57:48.600Z,2.50
2023-05-04T09:01:14.464Z,2.80
2023-05-04T09:04:38.684Z,2.80
2023-05-04T09:08:02.569Z,3.70
2023-05-04T09:11:26.358Z,5.40
2023-05-04T09:14:51.921Z,2.90
2023-05-04T09:18:15.869Z,3.70
2023-05-04T09:21:39.634Z,3.80
2023-05-04T09:25:11.575Z,4.30
2023-05-04T09:28:38.710Z,3.00
2023-05-04T09:32:05.021Z,2.50
2023-05-04T09:35:44.559Z,3.70
2023-05-04T09:39:16.376Z,2.50
2023-05-04T09:42:42.439Z,5.20
2023-05-04T09:46:07.044Z,2.80
2023-05-04T09:49:35.079Z,5.10
2023-05-04T09:52:59.060Z,3.80
2023-05-04T09:56:41.709Z,4.20
2023-05-04T10:00:06.101Z,3.10
2023-05-04T10:03:31.281Z,3.70
2023-05-04T10:06:56.119Z,3.10
2023-05-04T10:10:20.108Z,2.90
2023-05-04T10:13:44.008Z,2.90
2023-05-04T10:17:44.005Z,4.40
2023-05-04T10:21:53.070Z,2.50
2023-05-04T10:25:38.944Z,3.70
2023-05-04T10:29:19.408Z,1.90
2023-05-04T10:32:44.014Z,5.60
2023-05-04T10:36:09.115Z,4.00
2023-05-04T10:39:35.396Z,3.50
2023-05-04T10:42:59.459Z,4.30
2023-05-04T10:46:24.452Z,2.30
2023-05-04T10:49:48.410Z,2.40
2023-05-04T10:53:13.130Z,2.40
2023-05-04T10:56:37.057Z,2.80
2023-05-04T11:00:01.683Z,3.20
2023-05-04T11:03:26.005Z,4.70
2023-05-04T11:06:59.012Z,4.10
2023-05-04T11:10:27.867Z,2.30
2023-05-04T11:13:51.834Z,2.70
2023-05-04T11:20:42.959Z,4.50
2023-05-04T11:24:07.083Z,2.20
2023-05-04T11:30:56.243Z,2.50
2023-05-04T11:34:21.380Z,3.40
2023-05-04T11:37:47.421Z,2.80
2023-05-04T11:41:12.586Z,2.70
2023-05-04T11:44:38.495Z,2.40
2023-05-04T11:48:03.438Z,5.80
2023-05-04T11:51:29.239Z,3.00
2023-05-04T11:54:57.961Z,3.50
2023-05-04T11:58:26.930Z,4.40
2023-05-04T12:01:50.887Z,4.90
2023-05-04T12:05:15.076Z,2.30
2023-05-04T12:08:42.446Z,2.50
2023-05-04T12:12:06.964Z,2.80
2023-05-04T12:15:36.553Z,2.20
2023-05-04T12:19:12.769Z,1.90
2023-05-04T12:22:37.784Z,3.00
2023-05-04T12:26:01.578Z,3.20
2023-05-04T12:29:25.397Z,3.10
2023-05-04T12:32:49.226Z,2.00
2023-05-04T12:36:13.045Z,2.20
2023-05-04T12:39:36.894Z,4.00
2023-05-04T12:43:00.753Z,2.40
2023-05-04T12:46:24.801Z,4.30
2023-05-04T12:49:48.770Z,2.70
2023-05-04T12:53:12.980Z,4.40
2023-05-04T12:56:37.363Z,3.80
2023-05-04T13:00:01.304Z,3.00
2023-05-04T13:03:25.408Z,2.60
2023-05-04T13:06:49.294Z,4.60
2023-05-04T13:10:13.105Z,3.00
2023-05-04T13:13:37.433Z,2.10
2023-05-04T13:17:01.314Z,2.80
2023-05-04T13:20:25.388Z,2.70
2023-05-04T13:23:49.226Z,2.10
2023-05-04T13:27:13.091Z,2.20
2023-05-04T13:30:57.229Z,2.30
2023-05-04T13:34:55.358Z,2.70
2023-05-04T13:38:53.215Z,2.60
2023-05-04T13:42:51.245Z,4.30
2023-05-04T13:46:49.190Z,2.10
2023-05-04T13:50:47.189Z,2.20
2023-05-04T13:54:45.205Z,2.60
2023-05-04T13:58:43.224Z,3.10
2023-05-04T14:02:41.239Z,5.10
2023-05-04T14:06:39.198Z,2.40
2023-05-04T14:10:37.702Z,2.60
2023-05-04T14:14:35.191Z,2.30
2023-05-04T14:18:33.178Z,2.20
2023-05-04T14:22:31.160Z,1.90
2023-05-04T14:26:29.146Z,3.30
2023-05-04T14:30:27.191Z,3.80
2023-05-04T14:34:25.202Z,2.30
2023-05-04T14:38:23.245Z,2.90
2023-05-04T14:42:21.163Z,2.90
2023-05-04T14:46:19.172Z,2.80
2023-05-04T14:50:17.117Z,2.00
2023-05-04T14:54:15.106Z,2.50
2023-05-04T14:58:13.084Z,3.50
2023-05-04T15:02:13.113Z,4.50
2023-05-04T15:06:11.152Z,2.00
2023-05-04T15:10:09.340Z,2.30
2023-05-04T15:14:07.088Z,4.40
2023-05-04T15:18:05.186Z,4.00
2023-05-04T15:22:04.144Z,3.20
2023-05-04T15:26:02.134Z,3.00
2023-05-04T15:30:00.186Z,4.30
2023-05-04T15:33:58.092Z,4.20
2023-05-04T15:37:56.068Z,2.50
2023-05-04T15:42:12.089Z,5.30
2023-05-04T15:46:10.081Z,3.30
2023-05-04T15:50:08.283Z,2.40
2023-05-04T15:54:06.050Z,4.30
2023-05-04T15:58:04.139Z,2.70
2023-05-04T16:02:02.146Z,2.50
2023-05-04T16:06:00.109Z,2.30
2023-05-04T16:09:58.008Z,2.40
2023-05-04T16:13:56.058Z,3.60
2023-05-04T16:17:54.114Z,2.50
2023-05-04T16:21:52.080Z,2.60
2023-05-04T16:25:50.019Z,3.70
2023-05-04T16:29:48.055Z,5.60
2023-05-04T16:33:46.999Z,3.50
2023-05-04T16:37:45.030Z,4.40
2023-05-04T16:41:43.210Z,3.20
2023-05-04T16:45:41.130Z,2.30
2023-05-04T16:49:39.036Z,2.90
2023-05-04T16:53:37.034Z,2.50
2023-05-04T16:57:35.014Z,3.10
2023-05-04T17:01:33.080Z,3.70
2023-05-04T17:05:30.976Z,5.90
2023-05-04T17:09:29.128Z,2.50
2023-05-04T17:13:26.974Z,3.10
2023-05-04T17:17:25.067Z,2.50
2023-05-04T17:21:22.994Z,3.50
2023-05-04T17:25:20.975Z,4.90
2023-05-04T17:29:18.979Z,4.10
2023-05-04T17:33:17.141Z,5.60
2023-05-04T17:37:14.942Z,4.00
2023-05-04T17:41:12.993Z,7.20
2023-05-04T17:45:10.924Z,6.20
2023-05-04T17:49:09.015Z,7.00
2023-05-04T17:53:09.926Z,8.80
2023-05-04T17:57:22.947Z,8.80
2023-05-04T18:01:20.947Z,8.50
2023-05-04T18:05:36.924Z,15.20
2023-05-04T18:09:34.914Z,14.30
2023-05-04T18:13:32.947Z,14.60
2023-05-04T18:17:30.953Z,13.50
2023-05-04T18:21:28.927Z,14.40
2023-05-04T18:25:26.968Z,20.70
2023-05-04T18:29:25.953Z,12.20
2023-05-04T18:33:17.279Z,15.50
2023-05-04T18:37:14.907Z,14.80
2023-05-04T18:41:12.916Z,11.90
2023-05-04T18:45:10.871Z,11.90
2023-05-04T18:49:08.897Z,11.90
2023-05-04T18:53:06.968Z,15.00
2023-05-04T18:57:04.933Z,13.30
2023-05-04T19:01:02.947Z,17.10
2023-05-04T19:05:00.818Z,12.00
2023-05-04T19:08:58.895Z,12.50
2023-05-04T19:12:56.899Z,13.00
2023-05-04T19:16:54.860Z,9.90
2023-05-04T19:20:53.848Z,15.60
2023-05-04T19:24:51.857Z,11.70
2023-05-04T19:28:49.954Z,15.00
2023-05-04T19:32:47.889Z,14.70
2023-05-04T19:36:45.861Z,19.70
2023-05-04T19:40:43.852Z,12.20
2023-05-04T19:44:41.811Z,16.20
2023-05-04T19:48:39.805Z,21.20
2023-05-04T19:52:37.816Z,20.00
2023-05-04T19:56:35.861Z,22.80
2023-05-04T20:00:54.854Z,17.00
2023-05-04T20:04:52.851Z,20.50
2023-05-04T20:08:50.788Z,15.40
2023-05-04T20:12:48.907Z,17.90
2023-05-04T20:16:46.938Z,18.40
2023-05-04T20:20:44.792Z,16.50
2023-05-04T20:24:42.766Z,18.40
2023-05-04T20:28:40.839Z,16.00
2023-05-04T20:32:38.781Z,16.80
2023-05-04T20:36:36.736Z,16.80
2023-05-04T20:40:34.765Z,21.20
2023-05-04T20:44:32.820Z,18.00
2023-05-04T20:48:30.728Z,14.60
2023-05-04T20:52:35.758Z,13.70
2023-05-04T20:56:33.712Z,17.90
2023-05-04T21:00:33.454Z,14.70
2023-05-04T21:04:31.756Z,17.00
2023-05-04T21:08:29.738Z,16.10
2023-05-04T21:12:27.695Z,22.30
2023-05-04T21:16:25.821Z,19.90
2023-05-04T21:20:23.743Z,17.40
2023-05-04T21:24:25.858Z,21.00
2023-05-04T21:28:23.666Z,25.80
2023-05-04T21:32:21.720Z,22.70
2023-05-04T21:36:29.808Z,21.90
2023-05-04T21:40:59.699Z,17.90
2023-05-04T21:44:57.704Z,16.60
2023-05-04T21:48:55.698Z,17.40
2023-05-04T21:52:53.659Z,16.80
2023-05-04T21:56:51.726Z,23.90
2023-05-04T22:00:49.701Z,16.60
2023-05-04T22:04:47.725Z,21.50
2023-05-04T22:08:45.621Z,15.30
2023-05-04T22:12:43.712Z,22.00
2023-05-04T22:16:41.668Z,21.90
2023-05-04T22:20:39.649Z,20.10
2023-05-04T22:24:37.617Z,18.00
2023-05-04T22:28:35.648Z,20.70
2023-05-04T22:32:33.707Z,19.20
2023-05-04T22:36:31.611Z,20.70
2023-05-04T22:40:29.591Z,21.20
2023-05-04T22:44:27.636Z,18.50
2023-05-04T22:51:25.397Z,22.90
2023-05-04T22:55:23.351Z,18.80
2023-05-04T22:59:21.294Z,19.60
2023-05-04T23:03:19.335Z,16.30
2023-05-04T23:07:17.396Z,15.70
2023-05-04T23:11:15.303Z,16.70
2023-05-04T23:15:13.350Z,15.60
2023-05-04T23:19:11.357Z,15.10
2023-05-04T23:23:09.296Z,13.90
2023-05-04T23:27:07.305Z,14.50
2023-05-04T23:31:05.278Z,16.10
2023-05-04T23:35:03.350Z,14.60
2023-05-04T23:39:01.311Z,14.20
2023-05-04T23:43:02.288Z,15.00
2023-05-04T23:47:00.273Z,16.00
2023-05-04T23:51:11.228Z,18.70
2023-05-04T23:55:09.298Z,15.10
2023-05-04T23:59:07.341Z,15.40
